Time,TemperatureF,DewpointF,PressureIn,WindDirection,WindDirectionDegrees,WindSpeedMPH,WindSpeedGustMPH,Humidity,HourlyPrecipIn,Conditions,Clouds,dailyrainin,SoftwareType,DateUTC
2013-09-17 00:02:00,60.8,54.4,0.00,North,0,0.7,1.3,79,0.00,,,0.00,WUHU216HW,2013-09-17 07:02:00,
2013-09-17 00:07:00,60.8,54.4,0.00,NNW,338,0.0,1.1,79,0.00,,,0.00,WUHU216HW,2013-09-17 07:07:00,
2013-09-17 00:12:00,61.2,55.1,0.00,North,0,0.7,2.0,80,0.00,,,0.00,WUHU216HW,2013-09-17 07:12:00,
2013-09-17 00:17:00,61.6,55.4,0.00,North,0,0.7,2.0,80,0.00,,,0.00,WUHU216HW,2013-09-17 07:17:00,
2013-09-17 00:22:00,61.9,55.4,0.00,NNW,338,0.4,3.4,79,0.00,,,0.00,WUHU216HW,2013-09-17 07:22:00,
2013-09-17 00:27:00,62.1,55.2,0.00,WNW,293,0.0,3.4,78,0.00,,,0.00,WUHU216HW,2013-09-17 07:27:00,
2013-09-17 00:32:00,62.1,55.2,0.00,NW,315,1.8,2.5,78,0.00,,,0.00,WUHU216HW,2013-09-17 07:32:00,
2013-09-17 00:37:00,61.9,55.0,0.00,NNW,338,0.4,1.8,78,0.00,,,0.00,WUHU216HW,2013-09-17 07:37:00,
2013-09-17 00:42:00,62.1,55.2,0.00,WSW,248,1.3,2.5,78,0.00,,,0.00,WUHU216HW,2013-09-17 07:42:00,
2013-09-17 00:47:00,62.3,55.3,0.00,NNW,338,1.1,2.9,78,0.00,,,0.00,WUHU216HW,2013-09-17 07:47:00,
2013-09-17 00:52:00,62.3,55.3,0.00,WNW,293,0.7,2.9,78,0.00,,,0.00,WUHU216HW,2013-09-17 07:52:00,
2013-09-17 00:57:00,62.3,55.3,0.00,NW,315,0.4,1.8,78,0.00,,,0.00,WUHU216HW,2013-09-17 07:57:00,
2013-09-17 01:02:00,62.3,55.6,0.00,North,0,1.1,1.6,79,0.00,,,0.00,WUHU216HW,2013-09-17 08:02:00,
2013-09-17 01:07:00,62.1,55.5,0.00,NW,315,2.9,2.9,79,0.00,,,0.00,WUHU216HW,2013-09-17 08:07:00,
2013-09-17 01:12:00,62.1,55.2,0.00,NNW,338,0.0,2.9,78,0.00,,,0.00,WUHU216HW,2013-09-17 08:12:00,
2013-09-17 01:17:00,61.9,54.6,0.00,ENE,68,0.4,1.1,77,0.00,,,0.00,WUHU216HW,2013-09-17 08:17:00,
2013-09-17 01:22:00,61.6,55.0,0.00,West,270,2.5,2.5,79,0.00,,,0.00,WUHU216HW,2013-09-17 08:22:00,
2013-09-17 01:27:00,61.6,55.0,0.00,West,270,2.2,2.5,79,0.00,,,0.00,WUHU216HW,2013-09-17 08:27:00,
2013-09-17 01:31:00,61.7,55.2,0.00,NNW,338,0.0,4.3,79,0.00,,,0.00,WUHU216HW,2013-09-17 08:31:00,
2013-09-17 01:36:00,61.9,55.4,0.00,NW,315,0.4,4.3,79,0.00,,,0.00,WUHU216HW,2013-09-17 08:36:00,
2013-09-17 01:41:00,61.9,55.4,0.00,NW,315,0.4,1.8,79,0.00,,,0.00,WUHU216HW,2013-09-17 08:41:00,
2013-09-17 01:46:00,61.7,55.2,0.00,SW,225,1.1,1.8,79,0.00,,,0.00,WUHU216HW,2013-09-17 08:46:00,
2013-09-17 01:51:00,61.6,55.0,0.00,NNW,338,0.9,1.1,79,0.00,,,0.00,WUHU216HW,2013-09-17 08:51:00,
2013-09-17 01:57:00,61.6,55.7,0.00,NNW,338,1.8,1.8,81,0.00,,,0.00,WUHU216HW,2013-09-17 08:57:00,
2013-09-17 02:02:00,61.6,55.7,0.00,NNW,338,3.4,3.4,81,0.00,,,0.00,WUHU216HW,2013-09-17 09:02:00,
2013-09-17 02:06:00,61.6,55.7,0.00,SW,225,1.1,3.4,81,0.00,,,0.00,WUHU216HW,2013-09-17 09:06:00,
2013-09-17 02:12:00,61.6,55.7,0.00,WNW,293,1.8,2.5,81,0.00,,,0.00,WUHU216HW,2013-09-17 09:12:00,
2013-09-17 02:16:00,61.6,55.4,0.00,West,270,3.6,3.6,80,0.00,,,0.00,WUHU216HW,2013-09-17 09:16:00,
2013-09-17 02:21:00,61.6,55.7,0.00,NW,315,0.7,3.6,81,0.00,,,0.00,WUHU216HW,2013-09-17 09:21:00,
2013-09-17 02:26:00,61.4,55.2,0.00,NE,45,1.8,2.9,80,0.00,,,0.00,WUHU216HW,2013-09-17 09:26:00,
2013-09-17 02:32:00,61.0,54.6,0.00,NW,315,0.4,2.2,79,0.00,,,0.00,WUHU216HW,2013-09-17 09:32:00,
2013-09-17 02:37:00,60.8,54.4,0.00,NW,315,0.9,2.2,79,0.00,,,0.00,WUHU216HW,2013-09-17 09:37:00,
2013-09-17 02:42:00,60.8,54.7,0.00,ESE,113,1.1,1.1,80,0.00,,,0.00,WUHU216HW,2013-09-17 09:42:00,
2013-09-17 02:47:00,60.5,54.4,0.00,NNW,338,1.1,1.1,80,0.00,,,0.00,WUHU216HW,2013-09-17 09:47:00,
2013-09-17 02:52:00,60.3,54.2,0.00,NNW,338,0.4,1.1,80,0.00,,,0.00,WUHU216HW,2013-09-17 09:52:00,
2013-09-17 02:57:00,60.1,54.0,0.00,NNW,338,1.3,1.3,80,0.00,,,0.00,WUHU216HW,2013-09-17 09:57:00,
2013-09-17 03:02:00,60.1,54.0,0.00,NW,315,0.2,3.1,80,0.00,,,0.00,WUHU216HW,2013-09-17 10:02:00,
2013-09-17 03:07:00,60.1,54.0,0.00,North,0,1.1,3.1,80,0.00,,,0.00,WUHU216HW,2013-09-17 10:07:00,
2013-09-17 03:12:00,60.1,54.4,0.00,NNW,338,3.4,3.4,81,0.00,,,0.00,WUHU216HW,2013-09-17 10:12:00,
2013-09-17 03:17:00,60.1,54.4,0.00,WSW,248,0.7,3.4,81,0.00,,,0.00,WUHU216HW,2013-09-17 10:17:00,
2013-09-17 03:22:00,60.3,54.6,0.00,NW,315,0.9,2.2,81,0.00,,,0.00,WUHU216HW,2013-09-17 10:22:00,
2013-09-17 03:27:00,60.3,54.6,0.00,NNW,338,2.9,4.0,81,0.00,,,0.00,WUHU216HW,2013-09-17 10:27:00,
2013-09-17 03:32:00,60.3,54.6,0.00,SE,135,0.4,4.0,81,0.00,,,0.00,WUHU216HW,2013-09-17 10:32:00,
2013-09-17 03:37:00,60.1,54.4,0.00,North,0,0.4,2.5,81,0.00,,,0.00,WUHU216HW,2013-09-17 10:37:00,
2013-09-17 03:42:00,60.1,54.4,0.00,ENE,68,0.9,1.1,81,0.00,,,0.00,WUHU216HW,2013-09-17 10:42:00,
2013-09-17 03:47:00,60.1,54.4,0.00,NNW,338,0.2,0.9,81,0.00,,,0.00,WUHU216HW,2013-09-17 10:47:00,
2013-09-17 03:52:00,59.9,54.2,0.00,NW,315,0.4,1.1,81,0.00,,,0.00,WUHU216HW,2013-09-17 10:52:00,
2013-09-17 03:57:00,60.1,55.0,0.00,NNE,23,0.4,1.8,83,0.00,,,0.00,WUHU216HW,2013-09-17 10:57:00,
2013-09-17 04:02:00,60.1,55.0,0.00,NNW,338,0.4,1.8,83,0.00,,,0.00,WUHU216HW,2013-09-17 11:02:00,
2013-09-17 04:07:00,60.1,54.6,0.00,WNW,293,0.7,4.0,82,0.00,,,0.00,WUHU216HW,2013-09-17 11:07:00,
2013-09-17 04:12:00,60.1,54.6,0.00,NW,315,2.5,4.0,82,0.00,,,0.00,WUHU216HW,2013-09-17 11:12:00,
2013-09-17 04:17:00,60.1,54.6,0.00,NNW,338,1.1,2.5,82,0.00,,,0.00,WUHU216HW,2013-09-17 11:17:00,
2013-09-17 04:22:00,60.1,54.6,0.00,NNW,338,0.9,1.8,82,0.00,,,0.00,WUHU216HW,2013-09-17 11:22:00,
2013-09-17 04:27:00,60.1,54.4,0.00,NNE,23,0.2,1.8,81,0.00,,,0.00,WUHU216HW,2013-09-17 11:27:00,
2013-09-17 04:32:00,60.1,54.4,0.00,North,0,0.0,0.7,81,0.00,,,0.00,WUHU216HW,2013-09-17 11:32:00,
2013-09-17 04:37:00,59.8,54.3,0.00,North,0,0.4,0.7,82,0.00,,,0.00,WUHU216HW,2013-09-17 11:37:00,
2013-09-17 04:42:00,59.9,54.8,0.00,North,0,0.2,0.9,83,0.00,,,0.00,WUHU216HW,2013-09-17 11:42:00,
2013-09-17 04:47:00,59.9,54.5,0.00,North,0,1.1,1.1,82,0.00,,,0.00,WUHU216HW,2013-09-17 11:47:00,
2013-09-17 04:52:00,59.9,54.5,0.00,NNW,338,0.0,1.1,82,0.00,,,0.00,WUHU216HW,2013-09-17 11:52:00,
2013-09-17 04:57:00,59.8,54.6,0.00,East,90,0.2,1.1,83,0.00,,,0.00,WUHU216HW,2013-09-17 11:57:00,
2013-09-17 05:02:00,59.8,54.6,0.00,WSW,248,0.4,1.1,83,0.00,,,0.00,WUHU216HW,2013-09-17 12:02:00,
2013-09-17 05:07:00,59.8,54.6,0.00,SE,135,0.4,1.1,83,0.00,,,0.00,WUHU216HW,2013-09-17 12:07:00,
2013-09-17 05:12:00,59.8,54.6,0.00,NE,45,0.4,1.3,83,0.00,,,0.00,WUHU216HW,2013-09-17 12:12:00,
2013-09-17 05:17:00,59.6,54.5,0.00,NE,45,0.0,1.3,83,0.00,,,0.00,WUHU216HW,2013-09-17 12:17:00,
2013-09-17 05:22:00,59.6,54.1,0.00,ESE,113,0.0,0.9,82,0.00,,,0.00,WUHU216HW,2013-09-17 12:22:00,
2013-09-17 05:27:00,59.4,53.9,0.00,SE,135,0.4,0.7,82,0.00,,,0.00,WUHU216HW,2013-09-17 12:27:00,
2013-09-17 05:32:00,59.4,54.3,0.00,NNE,23,4.3,4.3,83,0.00,,,0.00,WUHU216HW,2013-09-17 12:32:00,
2013-09-17 05:37:00,59.6,54.7,0.00,North,0,1.6,4.3,84,0.00,,,0.00,WUHU216HW,2013-09-17 12:37:00,
2013-09-17 05:42:00,59.8,54.6,0.00,ENE,68,1.3,4.3,83,0.00,,,0.00,WUHU216HW,2013-09-17 12:42:00,
2013-09-17 05:47:00,59.8,54.6,0.00,East,90,0.4,2.7,83,0.00,,,0.00,WUHU216HW,2013-09-17 12:47:00,
2013-09-17 05:52:00,59.8,54.6,0.00,NNE,23,0.4,2.7,83,0.00,,,0.00,WUHU216HW,2013-09-17 12:52:00,
2013-09-17 05:57:00,59.6,54.5,0.00,NNE,23,0.7,1.6,83,0.00,,,0.00,WUHU216HW,2013-09-17 12:57:00,
2013-09-17 06:02:00,59.6,54.5,0.00,WNW,293,1.6,2.5,83,0.00,,,0.00,WUHU216HW,2013-09-17 13:02:00,
2013-09-17 06:07:00,59.6,54.5,0.00,North,0,0.4,2.5,83,0.00,,,0.00,WUHU216HW,2013-09-17 13:07:00,
2013-09-17 06:12:00,59.6,54.5,0.00,NNW,338,1.8,3.8,83,0.00,,,0.00,WUHU216HW,2013-09-17 13:12:00,
2013-09-17 06:17:00,59.6,54.5,0.00,NNW,338,0.0,3.8,83,0.00,,,0.00,WUHU216HW,2013-09-17 13:17:00,
2013-09-17 06:22:00,59.6,54.5,0.00,NNW,338,0.0,0.7,83,0.00,,,0.00,WUHU216HW,2013-09-17 13:22:00,
2013-09-17 06:27:00,59.6,54.1,0.00,West,270,0.0,1.6,82,0.00,,,0.00,WUHU216HW,2013-09-17 13:27:00,
2013-09-17 06:32:00,59.6,54.1,0.00,NE,45,0.2,1.8,82,0.00,,,0.00,WUHU216HW,2013-09-17 13:32:00,
2013-09-17 06:37:00,59.4,53.9,0.00,NNW,338,0.4,3.8,82,0.00,,,0.00,WUHU216HW,2013-09-17 13:37:00,
2013-09-17 06:42:00,59.6,54.1,0.00,WNW,293,2.5,3.8,82,0.00,,,0.00,WUHU216HW,2013-09-17 13:42:00,
2013-09-17 06:47:00,59.6,53.8,0.00,NW,315,1.6,2.5,81,0.00,,,0.00,WUHU216HW,2013-09-17 13:47:00,
2013-09-17 06:52:00,59.6,53.8,0.00,WNW,293,3.1,3.1,81,0.00,,,0.00,WUHU216HW,2013-09-17 13:52:00,
2013-09-17 06:57:00,59.6,53.8,0.00,NW,315,1.6,3.1,81,0.00,,,0.00,WUHU216HW,2013-09-17 13:57:00,
2013-09-17 07:02:00,59.6,53.8,0.00,NW,315,0.2,2.5,81,0.00,,,0.00,WUHU216HW,2013-09-17 14:02:00,
2013-09-17 07:07:00,59.4,53.7,0.00,North,0,0.4,2.5,81,0.00,,,0.00,WUHU216HW,2013-09-17 14:07:00,
2013-09-17 07:12:00,59.4,53.7,0.00,North,0,0.2,0.4,81,0.00,,,0.00,WUHU216HW,2013-09-17 14:12:00,
2013-09-17 07:17:00,59.2,53.7,0.00,NNE,23,0.0,1.1,82,0.00,,,0.00,WUHU216HW,2013-09-17 14:17:00,
2013-09-17 07:22:00,59.4,53.9,0.00,ENE,68,0.7,1.1,82,0.00,,,0.00,WUHU216HW,2013-09-17 14:22:00,
2013-09-17 07:27:00,59.4,53.7,0.00,NW,315,1.8,3.4,81,0.00,,,0.00,WUHU216HW,2013-09-17 14:27:00,
2013-09-17 07:32:00,59.8,54.0,0.00,North,0,2.0,3.4,81,0.00,,,0.00,WUHU216HW,2013-09-17 14:32:00,
2013-09-17 07:37:00,59.9,54.2,0.00,NW,315,4.7,4.7,81,0.00,,,0.00,WUHU216HW,2013-09-17 14:37:00,
2013-09-17 07:42:00,59.9,53.8,0.00,NNW,338,1.6,4.7,80,0.00,,,0.00,WUHU216HW,2013-09-17 14:42:00,
2013-09-17 07:47:00,59.9,53.8,0.00,NNW,338,0.7,3.4,80,0.00,,,0.00,WUHU216HW,2013-09-17 14:47:00,
2013-09-17 07:52:00,59.9,53.8,0.00,North,0,1.1,3.4,80,0.00,,,0.00,WUHU216HW,2013-09-17 14:52:00,
2013-09-17 07:57:00,60.1,54.0,0.00,NNW,338,0.9,2.7,80,0.00,,,0.00,WUHU216HW,2013-09-17 14:57:00,
2013-09-17 08:02:00,60.1,54.0,0.00,North,0,0.2,1.8,80,0.00,,,0.00,WUHU216HW,2013-09-17 15:02:00,
2013-09-17 08:07:00,60.3,54.2,0.00,NE,45,2.0,3.1,80,0.00,,,0.00,WUHU216HW,2013-09-17 15:07:00,
2013-09-17 08:12:00,60.5,54.4,0.00,NNW,338,1.1,3.4,80,0.00,,,0.00,WUHU216HW,2013-09-17 15:12:00,
2013-09-17 08:17:00,60.5,54.7,0.00,NNW,338,1.8,3.4,81,0.00,,,0.00,WUHU216HW,2013-09-17 15:17:00,
2013-09-17 08:22:00,60.8,54.7,0.00,NW,315,0.9,2.7,80,0.00,,,0.00,WUHU216HW,2013-09-17 15:22:00,
2013-09-17 08:27:00,60.7,54.2,0.00,West,270,0.4,4.7,79,0.00,,,0.00,WUHU216HW,2013-09-17 15:27:00,
2013-09-17 08:32:00,60.8,54.4,0.00,North,0,1.1,4.7,79,0.00,,,0.00,WUHU216HW,2013-09-17 15:32:00,
2013-09-17 08:37:00,61.0,54.6,0.00,West,270,2.2,3.6,79,0.00,,,0.00,WUHU216HW,2013-09-17 15:37:00,
2013-09-17 08:42:00,61.0,53.8,0.00,ESE,113,0.2,2.2,77,0.00,,,0.00,WUHU216HW,2013-09-17 15:42:00,
2013-09-17 08:47:00,61.0,54.2,0.00,ESE,113,0.0,1.8,78,0.00,,,0.00,WUHU216HW,2013-09-17 15:47:00,
2013-09-17 08:52:00,61.0,54.2,0.00,SE,135,0.0,0.9,78,0.00,,,0.00,WUHU216HW,2013-09-17 15:52:00,
2013-09-17 08:57:00,61.0,53.8,0.00,SE,135,0.0,0.9,77,0.00,,,0.00,WUHU216HW,2013-09-17 15:57:00,
2013-09-17 09:02:00,60.8,53.6,0.00,SSE,158,0.4,1.8,77,0.00,,,0.00,WUHU216HW,2013-09-17 16:02:00,
2013-09-17 09:07:00,60.8,53.6,0.00,East,90,0.0,1.8,77,0.00,,,0.00,WUHU216HW,2013-09-17 16:07:00,
2013-09-17 09:12:00,60.8,53.6,0.00,NNE,23,0.2,0.7,77,0.00,,,0.00,WUHU216HW,2013-09-17 16:12:00,
2013-09-17 09:17:00,61.0,53.8,0.00,NW,315,0.9,0.9,77,0.00,,,0.00,WUHU216HW,2013-09-17 16:17:00,
2013-09-17 09:22:00,61.2,53.7,0.00,NW,315,0.2,3.4,76,0.00,,,0.00,WUHU216HW,2013-09-17 16:22:00,
2013-09-17 09:27:00,61.2,53.7,0.00,SE,135,0.0,3.4,76,0.00,,,0.00,WUHU216HW,2013-09-17 16:27:00,
2013-09-17 09:32:00,61.6,53.6,0.00,WNW,293,0.4,1.1,75,0.00,,,0.00,WUHU216HW,2013-09-17 16:32:00,
2013-09-17 09:37:00,61.6,53.2,0.00,NNW,338,1.6,1.6,74,0.00,,,0.00,WUHU216HW,2013-09-17 16:37:00,
2013-09-17 09:42:00,61.6,53.6,0.00,South,180,0.9,1.6,75,0.00,,,0.00,WUHU216HW,2013-09-17 16:42:00,
2013-09-17 09:47:00,61.7,53.4,0.00,West,270,6.5,6.5,74,0.00,,,0.00,WUHU216HW,2013-09-17 16:47:00,
2013-09-17 09:52:00,61.7,53.4,0.00,NNE,23,2.9,6.5,74,0.00,,,0.00,WUHU216HW,2013-09-17 16:52:00,
2013-09-17 09:57:00,61.7,53.7,0.00,ESE,113,1.1,2.9,75,0.00,,,0.00,WUHU216HW,2013-09-17 16:57:00,
2013-09-17 10:02:00,61.9,53.9,0.00,ENE,68,0.4,2.7,75,0.00,,,0.00,WUHU216HW,2013-09-17 17:02:00,
2013-09-17 10:07:00,61.9,53.6,0.00,North,0,1.1,6.3,74,0.00,,,0.00,WUHU216HW,2013-09-17 17:07:00,
2013-09-17 10:12:00,62.1,53.7,0.00,NNW,338,0.7,6.3,74,0.00,,,0.00,WUHU216HW,2013-09-17 17:12:00,
2013-09-17 10:17:00,62.3,53.5,0.00,NNW,338,0.7,3.4,73,0.00,,,0.00,WUHU216HW,2013-09-17 17:17:00,
2013-09-17 10:22:00,62.6,53.8,0.00,North,0,1.1,3.4,73,0.00,,,0.00,WUHU216HW,2013-09-17 17:22:00,
2013-09-17 10:27:00,63.0,54.2,0.00,WNW,293,6.5,6.5,73,0.00,,,0.00,WUHU216HW,2013-09-17 17:27:00,
2013-09-17 10:32:00,63.0,54.5,0.00,North,0,1.1,6.5,74,0.00,,,0.00,WUHU216HW,2013-09-17 17:32:00,
2013-09-17 10:37:00,63.0,53.8,0.00,South,180,3.4,5.8,72,0.00,,,0.00,WUHU216HW,2013-09-17 17:37:00,
2013-09-17 10:42:00,63.0,53.8,0.00,NW,315,0.4,5.8,72,0.00,,,0.00,WUHU216HW,2013-09-17 17:42:00,
2013-09-17 10:47:00,63.0,53.5,0.00,North,0,1.3,6.9,71,0.00,,,0.00,WUHU216HW,2013-09-17 17:47:00,
2013-09-17 10:52:00,63.4,53.8,0.00,West,270,2.2,6.9,71,0.00,,,0.00,WUHU216HW,2013-09-17 17:52:00,
2013-09-17 10:57:00,63.5,53.6,0.00,NNW,338,1.8,4.5,70,0.00,,,0.00,WUHU216HW,2013-09-17 17:57:00,
2013-09-17 11:02:00,63.5,53.6,0.00,NNE,23,3.4,5.6,70,0.00,,,0.00,WUHU216HW,2013-09-17 18:02:00,
2013-09-17 11:07:00,63.7,53.4,0.00,NNW,338,4.3,5.6,69,0.00,,,0.00,WUHU216HW,2013-09-17 18:07:00,
2013-09-17 11:12:00,63.5,53.2,0.00,NW,315,1.6,5.1,69,0.00,,,0.00,WUHU216HW,2013-09-17 18:12:00,
2013-09-17 11:17:00,63.7,53.4,0.00,WSW,248,2.7,5.1,69,0.00,,,0.00,WUHU216HW,2013-09-17 18:17:00,
2013-09-17 11:22:00,64.1,53.3,0.00,NW,315,0.4,4.0,68,0.00,,,0.00,WUHU216HW,2013-09-17 18:22:00,
2013-09-17 11:27:00,64.3,53.1,0.00,NNW,338,2.7,4.3,67,0.00,,,0.00,WUHU216HW,2013-09-17 18:27:00,
2013-09-17 11:32:00,64.6,53.0,0.00,NNW,338,1.8,4.3,66,0.00,,,0.00,WUHU216HW,2013-09-17 18:32:00,
2013-09-17 11:37:00,64.6,53.0,0.00,North,0,2.9,4.7,66,0.00,,,0.00,WUHU216HW,2013-09-17 18:37:00,
2013-09-17 11:42:00,64.8,51.8,0.00,NW,315,4.3,4.7,63,0.00,,,0.00,WUHU216HW,2013-09-17 18:42:00,
2013-09-17 11:47:00,65.2,52.7,0.00,SSW,203,0.7,4.7,64,0.00,,,0.00,WUHU216HW,2013-09-17 18:47:00,
2013-09-17 11:52:00,65.2,51.8,0.00,NNW,338,0.4,9.8,62,0.00,,,0.00,WUHU216HW,2013-09-17 18:52:00,
2013-09-17 11:57:00,65.3,51.6,0.00,North,0,4.3,9.8,61,0.00,,,0.00,WUHU216HW,2013-09-17 18:57:00,
2013-09-17 12:02:00,65.7,52.3,0.00,NNW,338,0.7,8.5,62,0.00,,,0.00,WUHU216HW,2013-09-17 19:02:00,
2013-09-17 12:07:00,66.4,52.2,0.00,NE,45,3.1,8.5,60,0.00,,,0.00,WUHU216HW,2013-09-17 19:07:00,
2013-09-17 12:12:00,66.8,52.5,0.00,North,0,2.5,3.1,60,0.00,,,0.00,WUHU216HW,2013-09-17 19:12:00,
2013-09-17 12:17:00,66.6,52.4,0.00,ENE,68,2.5,5.1,60,0.00,,,0.00,WUHU216HW,2013-09-17 19:17:00,
2013-09-17 12:22:00,66.2,52.0,0.00,NNW,338,1.1,5.1,60,0.00,,,0.00,WUHU216HW,2013-09-17 19:22:00,
2013-09-17 12:27:00,65.9,52.1,0.00,West,270,2.5,5.1,61,0.00,,,0.00,WUHU216HW,2013-09-17 19:27:00,
2013-09-17 12:32:00,66.2,52.5,0.00,NW,315,4.9,5.1,61,0.00,,,0.00,WUHU216HW,2013-09-17 19:32:00,
2013-09-17 12:37:00,67.0,52.2,0.00,North,0,2.5,4.9,59,0.00,,,0.00,WUHU216HW,2013-09-17 19:37:00,
2013-09-17 12:42:00,67.0,52.7,0.00,NE,45,1.1,6.0,60,0.00,,,0.00,WUHU216HW,2013-09-17 19:42:00,
2013-09-17 12:47:00,67.1,52.8,0.00,WSW,248,0.2,6.0,60,0.00,,,0.00,WUHU216HW,2013-09-17 19:47:00,
2013-09-17 12:52:00,67.9,52.5,0.00,NNW,338,4.3,5.6,58,0.00,,,0.00,WUHU216HW,2013-09-17 19:52:00,
2013-09-17 12:57:00,68.4,52.6,0.00,South,180,3.8,6.7,57,0.00,,,0.00,WUHU216HW,2013-09-17 19:57:00,
2013-09-17 13:02:00,68.4,52.6,0.00,NW,315,2.0,7.4,57,0.00,,,0.00,WUHU216HW,2013-09-17 20:02:00,
2013-09-17 13:07:00,68.8,52.4,0.00,SSW,203,3.4,7.4,56,0.00,,,0.00,WUHU216HW,2013-09-17 20:07:00,
2013-09-17 13:12:00,68.8,52.4,0.00,NNW,338,3.4,6.3,56,0.00,,,0.00,WUHU216HW,2013-09-17 20:12:00,
2013-09-17 13:17:00,68.8,51.9,0.00,NW,315,3.6,7.6,55,0.00,,,0.00,WUHU216HW,2013-09-17 20:17:00,
2013-09-17 13:22:00,68.9,52.0,0.00,WNW,293,1.8,7.6,55,0.00,,,0.00,WUHU216HW,2013-09-17 20:22:00,
2013-09-17 13:27:00,69.5,51.6,0.00,West,270,1.3,5.1,53,0.00,,,0.00,WUHU216HW,2013-09-17 20:27:00,
2013-09-17 13:32:00,69.3,51.9,0.00,West,270,4.7,4.7,54,0.00,,,0.00,WUHU216HW,2013-09-17 20:32:00,
2013-09-17 13:37:00,69.3,51.9,0.00,NNW,338,1.6,4.7,54,0.00,,,0.00,WUHU216HW,2013-09-17 20:37:00,
2013-09-17 13:42:00,68.9,51.1,0.00,North,0,1.1,4.7,53,0.00,,,0.00,WUHU216HW,2013-09-17 20:42:00,
2013-09-17 13:47:00,68.8,51.0,0.00,NNW,338,3.1,5.1,53,0.00,,,0.00,WUHU216HW,2013-09-17 20:47:00,
2013-09-17 13:52:00,68.8,50.4,0.00,NNW,338,5.8,5.8,52,0.00,,,0.00,WUHU216HW,2013-09-17 20:52:00,
2013-09-17 13:57:00,68.9,50.1,0.00,NNE,23,1.8,5.8,51,0.00,,,0.00,WUHU216HW,2013-09-17 20:57:00,
2013-09-17 14:02:00,70.4,51.4,0.00,SE,135,2.7,4.0,51,0.00,,,0.00,WUHU216HW,2013-09-17 21:02:00,
2013-09-17 14:07:00,70.6,51.0,0.00,NNW,338,0.4,4.3,50,0.00,,,0.00,WUHU216HW,2013-09-17 21:07:00,
2013-09-17 14:12:00,70.9,50.2,0.00,SSW,203,6.5,6.5,48,0.00,,,0.00,WUHU216HW,2013-09-17 21:12:00,
2013-09-17 14:17:00,70.9,50.2,0.00,SW,225,1.1,6.5,48,0.00,,,0.00,WUHU216HW,2013-09-17 21:17:00,
2013-09-17 14:22:00,70.9,51.4,0.00,NNW,338,2.0,7.6,50,0.00,,,0.00,WUHU216HW,2013-09-17 21:22:00,
2013-09-17 14:27:00,70.9,50.2,0.00,SSW,203,2.7,7.6,48,0.00,,,0.00,WUHU216HW,2013-09-17 21:27:00,
2013-09-17 14:32:00,71.1,50.3,0.00,ENE,68,2.2,5.6,48,0.00,,,0.00,WUHU216HW,2013-09-17 21:32:00,
2013-09-17 14:37:00,71.1,50.9,0.00,NE,45,2.0,4.7,49,0.00,,,0.00,WUHU216HW,2013-09-17 21:37:00,
2013-09-17 14:42:00,70.7,50.1,0.00,ENE,68,4.0,4.3,48,0.00,,,0.00,WUHU216HW,2013-09-17 21:42:00,
2013-09-17 14:47:00,70.9,50.2,0.00,WNW,293,0.4,4.7,48,0.00,,,0.00,WUHU216HW,2013-09-17 21:47:00,
2013-09-17 14:52:00,70.7,50.1,0.00,NW,315,4.0,5.1,48,0.00,,,0.00,WUHU216HW,2013-09-17 21:52:00,
2013-09-17 14:57:00,70.6,50.5,0.00,NNW,338,6.3,9.4,49,0.00,,,0.00,WUHU216HW,2013-09-17 21:57:00,
2013-09-17 15:02:00,70.4,50.9,0.00,NW,315,4.3,9.4,50,0.00,,,0.00,WUHU216HW,2013-09-17 22:02:00,
2013-09-17 15:07:00,70.6,50.5,0.00,NNW,338,4.7,4.7,49,0.00,,,0.00,WUHU216HW,2013-09-17 22:07:00,
2013-09-17 15:12:00,70.7,50.6,0.00,WNW,293,2.7,4.7,49,0.00,,,0.00,WUHU216HW,2013-09-17 22:12:00,
2013-09-17 15:17:00,70.4,50.3,0.00,NW,315,4.0,4.0,49,0.00,,,0.00,WUHU216HW,2013-09-17 22:17:00,
2013-09-17 15:22:00,69.5,49.5,0.00,East,90,4.0,7.2,49,0.00,,,0.00,WUHU216HW,2013-09-17 22:22:00,
2013-09-17 15:27:00,69.3,50.0,0.00,West,270,2.0,7.2,50,0.00,,,0.00,WUHU216HW,2013-09-17 22:27:00,
2013-09-17 15:32:00,69.5,50.6,0.00,WNW,293,3.1,7.6,51,0.00,,,0.00,WUHU216HW,2013-09-17 22:32:00,
2013-09-17 15:37:00,69.8,49.8,0.00,NW,315,7.4,9.6,49,0.00,,,0.00,WUHU216HW,2013-09-17 22:37:00,
2013-09-17 15:42:00,69.5,50.0,0.00,NNW,338,2.9,9.6,50,0.00,,,0.00,WUHU216HW,2013-09-17 22:42:00,
2013-09-17 15:47:00,69.5,50.0,0.00,NNW,338,4.0,9.2,50,0.00,,,0.00,WUHU216HW,2013-09-17 22:47:00,
2013-09-17 15:52:00,69.5,49.5,0.00,NW,315,4.5,7.6,49,0.00,,,0.00,WUHU216HW,2013-09-17 22:52:00,
2013-09-17 15:57:00,69.7,50.2,0.00,North,0,3.4,7.6,50,0.00,,,0.00,WUHU216HW,2013-09-17 22:57:00,
2013-09-17 16:02:00,70.2,50.1,0.00,North,0,2.7,7.6,49,0.00,,,0.00,WUHU216HW,2013-09-17 23:02:00,
2013-09-17 16:07:00,70.0,49.4,0.00,NNE,23,3.4,7.2,48,0.00,,,0.00,WUHU216HW,2013-09-17 23:07:00,
2013-09-17 16:12:00,69.5,49.5,0.00,North,0,4.3,7.2,49,0.00,,,0.00,WUHU216HW,2013-09-17 23:12:00,
2013-09-17 16:17:00,68.9,49.0,0.00,NW,315,2.2,6.9,49,0.00,,,0.00,WUHU216HW,2013-09-17 23:17:00,
2013-09-17 16:22:00,68.2,49.0,0.00,NNW,338,1.8,6.9,50,0.00,,,0.00,WUHU216HW,2013-09-17 23:22:00,
2013-09-17 16:27:00,68.0,49.2,0.00,NNW,338,2.0,6.0,51,0.00,,,0.00,WUHU216HW,2013-09-17 23:27:00,
2013-09-17 16:32:00,68.0,48.8,0.00,NW,315,5.6,6.0,50,0.00,,,0.00,WUHU216HW,2013-09-17 23:32:00,
2013-09-17 16:37:00,67.9,48.1,0.00,NNW,338,3.1,5.6,49,0.00,,,0.00,WUHU216HW,2013-09-17 23:37:00,
2013-09-17 16:42:00,67.5,49.2,0.00,WNW,293,3.6,7.2,52,0.00,,,0.00,WUHU216HW,2013-09-17 23:42:00,
2013-09-17 16:47:00,67.3,49.6,0.00,NNE,23,3.8,7.2,53,0.00,,,0.00,WUHU216HW,2013-09-17 23:47:00,
2013-09-17 16:52:00,67.0,49.2,0.00,North,0,0.4,5.1,53,0.00,,,0.00,WUHU216HW,2013-09-17 23:52:00,
2013-09-17 16:57:00,67.1,50.0,0.00,NNE,23,1.1,4.0,54,0.00,,,0.00,WUHU216HW,2013-09-17 23:57:00,
2013-09-17 17:02:00,67.0,49.8,0.00,NNW,338,2.5,3.6,54,0.00,,,0.00,WUHU216HW,2013-09-18 00:02:00,
2013-09-17 17:07:00,66.4,50.2,0.00,NW,315,5.4,5.4,56,0.00,,,0.00,WUHU216HW,2013-09-18 00:07:00,
2013-09-17 17:12:00,65.7,50.1,0.00,WNW,293,2.2,5.6,57,0.00,,,0.00,WUHU216HW,2013-09-18 00:12:00,
2013-09-17 17:17:00,65.0,50.3,0.00,North,0,2.7,7.4,59,0.00,,,0.00,WUHU216HW,2013-09-18 00:17:00,
2013-09-17 17:22:00,64.6,50.0,0.00,NNW,338,3.4,7.8,59,0.00,,,0.00,WUHU216HW,2013-09-18 00:22:00,
2013-09-17 17:27:00,64.3,50.5,0.00,NW,315,2.7,7.8,61,0.00,,,0.00,WUHU216HW,2013-09-18 00:27:00,
2013-09-17 17:32:00,64.1,50.3,0.00,NNW,338,1.1,9.2,61,0.00,,,0.00,WUHU216HW,2013-09-18 00:32:00,
2013-09-17 17:37:00,64.1,50.3,0.00,NNE,23,3.1,9.2,61,0.00,,,0.00,WUHU216HW,2013-09-18 00:37:00,
2013-09-17 17:42:00,64.1,50.8,0.00,West,270,1.8,5.4,62,0.00,,,0.00,WUHU216HW,2013-09-18 00:42:00,
2013-09-17 17:47:00,64.1,50.8,0.00,NW,315,3.4,10.3,62,0.00,,,0.00,WUHU216HW,2013-09-18 00:47:00,
2013-09-17 17:52:00,63.9,50.6,0.00,NNW,338,2.5,10.3,62,0.00,,,0.00,WUHU216HW,2013-09-18 00:52:00,
2013-09-17 17:57:00,64.1,50.3,0.00,NW,315,0.9,5.8,61,0.00,,,0.00,WUHU216HW,2013-09-18 00:57:00,
2013-09-17 18:02:00,64.1,49.9,0.00,NW,315,3.8,7.8,60,0.00,,,0.00,WUHU216HW,2013-09-18 01:02:00,
2013-09-17 18:07:00,63.9,49.8,0.00,West,270,6.5,7.8,60,0.00,,,0.00,WUHU216HW,2013-09-18 01:07:00,
2013-09-17 18:12:00,63.9,49.2,0.00,WNW,293,2.5,6.5,59,0.00,,,0.00,WUHU216HW,2013-09-18 01:12:00,
2013-09-17 18:18:00,64.1,49.4,0.00,WSW,248,4.0,5.4,59,0.00,,,0.00,WUHU216HW,2013-09-18 01:18:00,
2013-09-17 18:23:00,64.3,50.0,0.00,West,270,0.9,4.3,60,0.00,,,0.00,WUHU216HW,2013-09-18 01:23:00,
2013-09-17 18:28:00,64.1,49.9,0.00,NW,315,3.4,5.1,60,0.00,,,0.00,WUHU216HW,2013-09-18 01:28:00,
2013-09-17 18:33:00,64.1,49.9,0.00,NW,315,2.5,5.1,60,0.00,,,0.00,WUHU216HW,2013-09-18 01:33:00,
2013-09-17 18:38:00,63.9,49.8,0.00,WSW,248,5.8,6.3,60,0.00,,,0.00,WUHU216HW,2013-09-18 01:38:00,
2013-09-17 18:43:00,63.9,50.1,0.00,WNW,293,6.9,6.9,61,0.00,,,0.00,WUHU216HW,2013-09-18 01:43:00,
2013-09-17 18:48:00,63.7,50.1,0.00,NW,315,3.4,6.9,61,0.00,,,0.00,WUHU216HW,2013-09-18 01:48:00,
2013-09-17 18:53:00,63.7,50.4,0.00,SSE,158,1.1,10.1,62,0.00,,,0.00,WUHU216HW,2013-09-18 01:53:00,
2013-09-17 18:58:00,63.7,50.4,0.00,NNW,338,4.0,10.1,62,0.00,,,0.00,WUHU216HW,2013-09-18 01:58:00,
2013-09-17 19:03:00,63.5,50.2,0.00,West,270,7.2,7.2,62,0.00,,,0.00,WUHU216HW,2013-09-18 02:03:00,
2013-09-17 19:08:00,63.2,50.0,0.00,West,270,3.8,7.8,62,0.00,,,0.00,WUHU216HW,2013-09-18 02:08:00,
2013-09-17 19:13:00,63.2,50.0,0.00,NW,315,3.4,8.5,62,0.00,,,0.00,WUHU216HW,2013-09-18 02:13:00,
2013-09-17 19:18:00,63.0,49.8,0.00,WNW,293,3.1,8.5,62,0.00,,,0.00,WUHU216HW,2013-09-18 02:18:00,
2013-09-17 19:23:00,63.0,50.2,0.00,NW,315,2.5,7.4,63,0.00,,,0.00,WUHU216HW,2013-09-18 02:23:00,
2013-09-17 19:28:00,63.0,50.2,0.00,North,0,3.1,5.8,63,0.00,,,0.00,WUHU216HW,2013-09-18 02:28:00,
2013-09-17 19:33:00,63.0,50.6,0.00,NW,315,2.7,5.4,64,0.00,,,0.00,WUHU216HW,2013-09-18 02:33:00,
2013-09-17 19:38:00,63.0,50.2,0.00,NW,315,2.5,8.5,63,0.00,,,0.00,WUHU216HW,2013-09-18 02:38:00,
2013-09-17 19:43:00,62.8,50.4,0.00,NW,315,7.8,8.5,64,0.00,,,0.00,WUHU216HW,2013-09-18 02:43:00,
2013-09-17 19:48:00,62.6,50.2,0.00,NW,315,3.4,7.8,64,0.00,,,0.00,WUHU216HW,2013-09-18 02:48:00,
2013-09-17 19:53:00,62.6,50.2,0.00,NNW,338,1.1,6.3,64,0.00,,,0.00,WUHU216HW,2013-09-18 02:53:00,
2013-09-17 19:58:00,62.6,50.2,0.00,NNW,338,2.7,6.3,64,0.00,,,0.00,WUHU216HW,2013-09-18 02:58:00,
2013-09-17 20:03:00,62.6,50.7,0.00,NNW,338,3.4,6.3,65,0.00,,,0.00,WUHU216HW,2013-09-18 03:03:00,
2013-09-17 20:08:00,62.5,50.5,0.00,West,270,4.0,6.3,65,0.00,,,0.00,WUHU216HW,2013-09-18 03:08:00,
2013-09-17 20:13:00,62.3,50.3,0.00,West,270,3.4,6.3,65,0.00,,,0.00,WUHU216HW,2013-09-18 03:13:00,
2013-09-17 20:18:00,62.3,50.0,0.00,NNW,338,1.3,4.9,64,0.00,,,0.00,WUHU216HW,2013-09-18 03:18:00,
2013-09-17 20:23:00,62.3,50.0,0.00,NW,315,2.5,4.9,64,0.00,,,0.00,WUHU216HW,2013-09-18 03:23:00,
2013-09-17 20:28:00,62.3,50.0,0.00,West,270,1.1,5.4,64,0.00,,,0.00,WUHU216HW,2013-09-18 03:28:00,
2013-09-17 20:33:00,62.3,50.3,0.00,NNW,338,0.7,5.4,65,0.00,,,0.00,WUHU216HW,2013-09-18 03:33:00,
2013-09-17 20:38:00,62.3,50.3,0.00,NNW,338,1.3,4.9,65,0.00,,,0.00,WUHU216HW,2013-09-18 03:38:00,
2013-09-17 20:43:00,62.1,50.2,0.00,WNW,293,2.7,4.7,65,0.00,,,0.00,WUHU216HW,2013-09-18 03:43:00,
2013-09-17 20:48:00,61.9,49.2,0.00,NW,315,1.1,6.7,63,0.00,,,0.00,WUHU216HW,2013-09-18 03:48:00,
2013-09-17 20:53:00,61.7,49.1,0.00,WNW,293,3.1,6.7,63,0.00,,,0.00,WUHU216HW,2013-09-18 03:53:00,
2013-09-17 20:58:00,61.7,49.4,0.00,NW,315,2.2,3.4,64,0.00,,,0.00,WUHU216HW,2013-09-18 03:58:00,
2013-09-17 21:01:00,61.7,49.4,0.00,West,270,2.7,3.4,64,0.00,,,0.00,WUHU216HW,2013-09-18 04:01:00,
2013-09-17 21:02:00,61.7,49.4,0.00,WNW,293,2.9,3.4,64,0.00,,,0.00,WUHU216HW,2013-09-18 04:02:00,
2013-09-17 21:07:00,61.6,49.7,0.00,NW,315,2.7,6.9,65,0.00,,,0.00,WUHU216HW,2013-09-18 04:07:00,
2013-09-17 21:12:00,61.6,49.7,0.00,NNW,338,3.1,6.9,65,0.00,,,0.00,WUHU216HW,2013-09-18 04:12:00,
2013-09-17 21:17:00,61.6,49.7,0.00,NW,315,0.9,5.8,65,0.00,,,0.00,WUHU216HW,2013-09-18 04:17:00,
2013-09-17 21:22:00,61.6,49.7,0.00,NW,315,1.1,4.5,65,0.00,,,0.00,WUHU216HW,2013-09-18 04:22:00,
2013-09-17 21:27:00,61.4,49.5,0.00,NNW,338,2.0,5.1,65,0.00,,,0.00,WUHU216HW,2013-09-18 04:27:00,
2013-09-17 21:32:00,61.2,49.4,0.00,West,270,2.5,5.1,65,0.00,,,0.00,WUHU216HW,2013-09-18 04:32:00,
2013-09-17 21:37:00,61.2,49.4,0.00,NW,315,5.4,5.4,65,0.00,,,0.00,WUHU216HW,2013-09-18 04:37:00,
2013-09-17 21:42:00,61.2,49.4,0.00,West,270,0.7,5.4,65,0.00,,,0.00,WUHU216HW,2013-09-18 04:42:00,
2013-09-17 21:47:00,61.4,50.0,0.00,NE,45,3.1,4.0,66,0.00,,,0.00,WUHU216HW,2013-09-18 04:47:00,
2013-09-17 21:52:00,61.4,50.4,0.00,NW,315,3.6,5.8,67,0.00,,,0.00,WUHU216HW,2013-09-18 04:52:00,
2013-09-17 21:57:00,61.4,50.8,0.00,North,0,2.0,5.8,68,0.00,,,0.00,WUHU216HW,2013-09-18 04:57:00,
2013-09-17 22:02:00,61.4,50.4,0.00,WNW,293,1.6,6.7,67,0.00,,,0.00,WUHU216HW,2013-09-18 05:02:00,
2013-09-17 22:07:00,61.4,50.4,0.00,NNW,338,1.1,6.7,67,0.00,,,0.00,WUHU216HW,2013-09-18 05:07:00,
2013-09-17 22:12:00,61.2,49.8,0.00,WNW,293,2.2,5.4,66,0.00,,,0.00,WUHU216HW,2013-09-18 05:12:00,
2013-09-17 22:17:00,61.0,49.6,0.00,North,0,3.8,5.4,66,0.00,,,0.00,WUHU216HW,2013-09-18 05:17:00,
2013-09-17 22:22:00,61.0,49.6,0.00,WNW,293,5.1,5.1,66,0.00,,,0.00,WUHU216HW,2013-09-18 05:22:00,
2013-09-17 22:27:00,61.0,49.2,0.00,West,270,1.6,7.6,65,0.00,,,0.00,WUHU216HW,2013-09-18 05:27:00,
2013-09-17 22:31:00,61.0,49.6,0.00,NNW,338,2.5,7.6,66,0.00,,,0.00,WUHU216HW,2013-09-18 05:31:00,
2013-09-17 22:36:00,61.0,49.6,0.00,North,0,0.9,6.9,66,0.00,,,0.00,WUHU216HW,2013-09-18 05:36:00,
2013-09-17 22:41:00,61.0,50.0,0.00,North,0,1.6,6.9,67,0.00,,,0.00,WUHU216HW,2013-09-18 05:41:00,
2013-09-17 22:46:00,61.0,50.5,0.00,NW,315,0.4,5.4,68,0.00,,,0.00,WUHU216HW,2013-09-18 05:46:00,
2013-09-17 22:51:00,61.0,50.9,0.00,NNW,338,4.3,5.4,69,0.00,,,0.00,WUHU216HW,2013-09-18 05:51:00,
2013-09-17 22:56:00,60.8,50.3,0.00,NW,315,7.8,7.8,68,0.00,,,0.00,WUHU216HW,2013-09-18 05:56:00,
2013-09-17 23:01:00,60.8,50.3,0.00,NNW,338,3.4,7.8,68,0.00,,,0.00,WUHU216HW,2013-09-18 06:01:00,
2013-09-17 23:06:00,60.7,49.7,0.00,NNW,338,4.0,7.8,67,0.00,,,0.00,WUHU216HW,2013-09-18 06:06:00,
2013-09-17 23:11:00,60.7,50.1,0.00,NW,315,3.1,5.1,68,0.00,,,0.00,WUHU216HW,2013-09-18 06:11:00,
2013-09-17 23:16:00,60.5,49.5,0.00,NNW,338,1.6,5.1,67,0.00,,,0.00,WUHU216HW,2013-09-18 06:16:00,
2013-09-17 23:21:00,60.3,49.8,0.00,NNW,338,1.6,4.5,68,0.00,,,0.00,WUHU216HW,2013-09-18 06:21:00,
2013-09-17 23:26:00,60.3,49.8,0.00,WNW,293,3.4,4.5,68,0.00,,,0.00,WUHU216HW,2013-09-18 06:26:00,
2013-09-17 23:31:00,60.3,49.8,0.00,NW,315,1.3,5.4,68,0.00,,,0.00,WUHU216HW,2013-09-18 06:31:00,
2013-09-17 23:36:00,60.3,49.8,0.00,North,0,0.9,5.4,68,0.00,,,0.00,WUHU216HW,2013-09-18 06:36:00,
2013-09-17 23:41:00,60.3,49.8,0.00,NW,315,1.8,3.4,68,0.00,,,0.00,WUHU216HW,2013-09-18 06:41:00,
2013-09-17 23:46:00,60.3,49.8,0.00,NNW,338,1.6,3.4,68,0.00,,,0.00,WUHU216HW,2013-09-18 06:46:00,
2013-09-17 23:51:00,60.3,49.3,0.00,North,0,1.3,3.4,67,0.00,,,0.00,WUHU216HW,2013-09-18 06:51:00,
2013-09-17 23:56:00,60.3,49.3,0.00,NW,315,1.6,3.4,67,0.00,,,0.00,WUHU216HW,2013-09-18 06:56:00,